sensor_id;sensor_type;location;lat;lon;timestamp;P1;durP1;ratioP1;P2;durP2;ratioP2
36189;SDS011;22232;50.914;13.858;2023-05-19T00:02:36;6.43;;;2.80;;
36189;SDS011;22232;50.914;13.858;2023-05-19T00:05:05;7.72;;;3.70;;
36189;SDS011;22232;50.914;13.858;2023-05-19T00:07:33;7.65;;;3.20;;
36189;SDS011;22232;50.914;13.858;2023-05-19T00:10:05;6.15;;;2.92;;
36189;SDS011;22232;50.914;13.858;2023-05-19T00:12:33;6.22;;;2.75;;
36189;SDS011;22232;50.914;13.858;2023-05-19T00:15:02;4.38;;;2.53;;
36189;SDS011;22232;50.914;13.858;2023-05-19T00:17:30;6.15;;;2.33;;
36189;SDS011;22232;50.914;13.858;2023-05-19T00:19:57;5.13;;;2.70;;
36189;SDS011;22232;50.914;13.858;2023-05-19T00:22:25;7.80;;;2.45;;
36189;SDS011;22232;50.914;13.858;2023-05-19T00:24:52;4.43;;;2.22;;
36189;SDS011;22232;50.914;13.858;2023-05-19T00:27:20;6.38;;;2.63;;
36189;SDS011;22232;50.914;13.858;2023-05-19T00:29:47;4.80;;;2.30;;
36189;SDS011;22232;50.914;13.858;2023-05-19T00:32:15;3.35;;;2.30;;
36189;SDS011;22232;50.914;13.858;2023-05-19T00:34:43;7.28;;;2.42;;
36189;SDS011;22232;50.914;13.858;2023-05-19T00:37:10;5.53;;;2.30;;
36189;SDS011;22232;50.914;13.858;2023-05-19T00:39:38;4.43;;;2.13;;
36189;SDS011;22232;50.914;13.858;2023-05-19T00:42:05;5.13;;;2.20;;
36189;SDS011;22232;50.914;13.858;2023-05-19T00:44:33;7.07;;;2.40;;
36189;SDS011;22232;50.914;13.858;2023-05-19T00:47:07;4.45;;;2.30;;
36189;SDS011;22232;50.914;13.858;2023-05-19T00:49:34;3.17;;;2.20;;
36189;SDS011;22232;50.914;13.858;2023-05-19T00:52:02;4.43;;;2.22;;
36189;SDS011;22232;50.914;13.858;2023-05-19T00:54:33;9.13;;;3.08;;
36189;SDS011;22232;50.914;13.858;2023-05-19T00:57:01;4.95;;;2.30;;
36189;SDS011;22232;50.914;13.858;2023-05-19T00:59:29;5.07;;;2.58;;
36189;SDS011;22232;50.914;13.858;2023-05-19T01:01:57;4.68;;;3.00;;
36189;SDS011;22232;50.914;13.858;2023-05-19T01:04:25;7.32;;;2.90;;
36189;SDS011;22232;50.914;13.858;2023-05-19T01:06:52;7.85;;;2.70;;
36189;SDS011;22232;50.914;13.858;2023-05-19T01:09:23;5.80;;;2.60;;
36189;SDS011;22232;50.914;13.858;2023-05-19T01:11:50;3.28;;;2.15;;
36189;SDS011;22232;50.914;13.858;2023-05-19T01:14:18;4.93;;;2.30;;
36189;SDS011;22232;50.914;13.858;2023-05-19T01:16:52;5.97;;;2.85;;
36189;SDS011;22232;50.914;13.858;2023-05-19T01:31:18;7.00;;;3.13;;
36189;SDS011;22232;50.914;13.858;2023-05-19T01:33:51;5.43;;;3.47;;
36189;SDS011;22232;50.914;13.858;2023-05-19T01:36:20;6.65;;;2.50;;
36189;SDS011;22232;50.914;13.858;2023-05-19T01:38:50;6.78;;;3.47;;
36189;SDS011;22232;50.914;13.858;2023-05-19T01:41:19;7.40;;;3.35;;
36189;SDS011;22232;50.914;13.858;2023-05-19T01:43:50;7.65;;;3.28;;
36189;SDS011;22232;50.914;13.858;2023-05-19T01:46:18;6.38;;;3.00;;
36189;SDS011;22232;50.914;13.858;2023-05-19T01:48:47;11.98;;;3.30;;
36189;SDS011;22232;50.914;13.858;2023-05-19T01:51:15;7.07;;;3.20;;
36189;SDS011;22232;50.914;13.858;2023-05-19T01:53:43;7.35;;;3.22;;
36189;SDS011;22232;50.914;13.858;2023-05-19T01:56:11;9.35;;;3.53;;
36189;SDS011;22232;50.914;13.858;2023-05-19T01:58:44;8.63;;;3.35;;
36189;SDS011;22232;50.914;13.858;2023-05-19T02:01:29;6.90;;;3.38;;
36189;SDS011;22232;50.914;13.858;2023-05-19T02:04:18;6.30;;;3.05;;
36189;SDS011;22232;50.914;13.858;2023-05-19T02:07:08;8.95;;;3.38;;
36189;SDS011;22232;50.914;13.858;2023-05-19T02:09:52;8.77;;;3.80;;
36189;SDS011;22232;50.914;13.858;2023-05-19T02:12:33;5.53;;;3.30;;
36189;SDS011;22232;50.914;13.858;2023-05-19T02:17:39;10.85;;;3.17;;
36189;SDS011;22232;50.914;13.858;2023-05-19T02:20:09;6.70;;;3.45;;
36189;SDS011;22232;50.914;13.858;2023-05-19T02:22:38;6.80;;;3.58;;
36189;SDS011;22232;50.914;13.858;2023-05-19T02:25:06;8.23;;;3.63;;
36189;SDS011;22232;50.914;13.858;2023-05-19T02:27:36;8.60;;;4.00;;
36189;SDS011;22232;50.914;13.858;2023-05-19T02:30:04;5.07;;;3.42;;
36189;SDS011;22232;50.914;13.858;2023-05-19T02:32:35;8.82;;;3.58;;
36189;SDS011;22232;50.914;13.858;2023-05-19T02:35:03;5.15;;;3.38;;
36189;SDS011;22232;50.914;13.858;2023-05-19T02:37:32;7.03;;;3.90;;
36189;SDS011;22232;50.914;13.858;2023-05-19T02:40:00;7.00;;;4.10;;
36189;SDS011;22232;50.914;13.858;2023-05-19T02:42:29;6.85;;;4.40;;
36189;SDS011;22232;50.914;13.858;2023-05-19T02:44:56;8.93;;;3.85;;
36189;SDS011;22232;50.914;13.858;2023-05-19T02:47:24;10.00;;;4.15;;
36189;SDS011;22232;50.914;13.858;2023-05-19T02:49:51;4.95;;;3.35;;
36189;SDS011;22232;50.914;13.858;2023-05-19T02:52:20;7.25;;;3.50;;
36189;SDS011;22232;50.914;13.858;2023-05-19T02:54:48;14.98;;;4.03;;
36189;SDS011;22232;50.914;13.858;2023-05-19T02:57:15;8.95;;;4.00;;
36189;SDS011;22232;50.914;13.858;2023-05-19T02:59:43;5.63;;;3.40;;
36189;SDS011;22232;50.914;13.858;2023-05-19T03:02:11;7.18;;;4.05;;
36189;SDS011;22232;50.914;13.858;2023-05-19T03:04:38;9.15;;;3.60;;
36189;SDS011;22232;50.914;13.858;2023-05-19T03:07:09;7.47;;;3.22;;
36189;SDS011;22232;50.914;13.858;2023-05-19T03:09:36;4.65;;;3.28;;
36189;SDS011;22232;50.914;13.858;2023-05-19T03:12:04;6.78;;;3.78;;
36189;SDS011;22232;50.914;13.858;2023-05-19T03:14:34;9.35;;;4.05;;
36189;SDS011;22232;50.914;13.858;2023-05-19T03:17:04;7.97;;;4.03;;
36189;SDS011;22232;50.914;13.858;2023-05-19T03:19:34;5.65;;;3.70;;
36189;SDS011;22232;50.914;13.858;2023-05-19T03:22:01;6.70;;;3.83;;
36189;SDS011;22232;50.914;13.858;2023-05-19T03:24:30;6.57;;;3.90;;
36189;SDS011;22232;50.914;13.858;2023-05-19T03:26:57;9.90;;;4.13;;
36189;SDS011;22232;50.914;13.858;2023-05-19T03:29:25;8.23;;;4.10;;
36189;SDS011;22232;50.914;13.858;2023-05-19T03:31:53;7.93;;;3.83;;
36189;SDS011;22232;50.914;13.858;2023-05-19T03:34:21;5.72;;;3.78;;
36189;SDS011;22232;50.914;13.858;2023-05-19T03:36:49;7.40;;;3.67;;
36189;SDS011;22232;50.914;13.858;2023-05-19T03:39:17;10.07;;;3.78;;
36189;SDS011;22232;50.914;13.858;2023-05-19T03:41:47;5.65;;;3.47;;
36189;SDS011;22232;50.914;13.858;2023-05-19T03:44:15;7.32;;;3.63;;
36189;SDS011;22232;50.914;13.858;2023-05-19T03:46:43;8.75;;;3.20;;
36189;SDS011;22232;50.914;13.858;2023-05-19T03:49:29;7.70;;;3.03;;
36189;SDS011;22232;50.914;13.858;2023-05-19T03:52:19;5.75;;;3.08;;
36189;SDS011;22232;50.914;13.858;2023-05-19T03:54:56;4.15;;;2.95;;
36189;SDS011;22232;50.914;13.858;2023-05-19T03:57:23;6.20;;;3.35;;
36189;SDS011;22232;50.914;13.858;2023-05-19T03:59:52;9.05;;;3.88;;
36189;SDS011;22232;50.914;13.858;2023-05-19T04:02:20;7.55;;;3.67;;
36189;SDS011;22232;50.914;13.858;2023-05-19T04:04:48;7.28;;;3.15;;
36189;SDS011;22232;50.914;13.858;2023-05-19T04:07:17;6.15;;;3.10;;
36189;SDS011;22232;50.914;13.858;2023-05-19T04:09:44;6.38;;;3.35;;
36189;SDS011;22232;50.914;13.858;2023-05-19T04:12:12;6.53;;;3.45;;
36189;SDS011;22232;50.914;13.858;2023-05-19T04:14:40;5.63;;;3.95;;
36189;SDS011;22232;50.914;13.858;2023-05-19T04:17:09;8.38;;;3.10;;
36189;SDS011;22232;50.914;13.858;2023-05-19T04:19:36;7.65;;;3.70;;
36189;SDS011;22232;50.914;13.858;2023-05-19T04:22:04;8.35;;;3.58;;
36189;SDS011;22232;50.914;13.858;2023-05-19T04:24:32;7.22;;;3.88;;
36189;SDS011;22232;50.914;13.858;2023-05-19T04:26:59;6.50;;;3.38;;
36189;SDS011;22232;50.914;13.858;2023-05-19T04:29:28;8.10;;;3.67;;
36189;SDS011;22232;50.914;13.858;2023-05-19T04:31:56;7.28;;;3.50;;
36189;SDS011;22232;50.914;13.858;2023-05-19T04:34:24;5.57;;;3.55;;
36189;SDS011;22232;50.914;13.858;2023-05-19T04:36:51;6.78;;;3.47;;
36189;SDS011;22232;50.914;13.858;2023-05-19T04:39:21;5.95;;;3.45;;
36189;SDS011;22232;50.914;13.858;2023-05-19T04:41:50;6.20;;;3.35;;
36189;SDS011;22232;50.914;13.858;2023-05-19T04:44:20;5.40;;;3.30;;
36189;SDS011;22232;50.914;13.858;2023-05-19T04:46:49;6.30;;;3.60;;
36189;SDS011;22232;50.914;13.858;2023-05-19T04:49:22;7.30;;;3.30;;
36189;SDS011;22232;50.914;13.858;2023-05-19T04:51:50;5.90;;;3.58;;
36189;SDS011;22232;50.914;13.858;2023-05-19T04:54:25;6.22;;;3.30;;
36189;SDS011;22232;50.914;13.858;2023-05-19T04:56:54;8.43;;;3.78;;
36189;SDS011;22232;50.914;13.858;2023-05-19T04:59:23;9.80;;;4.03;;
36189;SDS011;22232;50.914;13.858;2023-05-19T05:01:51;9.63;;;3.67;;
36189;SDS011;22232;50.914;13.858;2023-05-19T05:04:19;7.75;;;4.53;;
36189;SDS011;22232;50.914;13.858;2023-05-19T05:06:47;8.38;;;4.45;;
36189;SDS011;22232;50.914;13.858;2023-05-19T05:09:17;13.55;;;4.32;;
36189;SDS011;22232;50.914;13.858;2023-05-19T05:11:46;7.63;;;3.92;;
36189;SDS011;22232;50.914;13.858;2023-05-19T05:14:14;5.90;;;3.78;;
36189;SDS011;22232;50.914;13.858;2023-05-19T05:16:42;6.20;;;3.58;;
36189;SDS011;22232;50.914;13.858;2023-05-19T05:19:15;6.75;;;4.03;;
36189;SDS011;22232;50.914;13.858;2023-05-19T05:21:43;7.45;;;3.50;;
36189;SDS011;22232;50.914;13.858;2023-05-19T05:24:13;6.40;;;3.55;;
36189;SDS011;22232;50.914;13.858;2023-05-19T05:26:48;9.75;;;3.83;;
36189;SDS011;22232;50.914;13.858;2023-05-19T05:29:16;5.88;;;3.60;;
36189;SDS011;22232;50.914;13.858;2023-05-19T05:31:44;5.95;;;3.00;;
36189;SDS011;22232;50.914;13.858;2023-05-19T05:34:11;7.72;;;3.90;;
36189;SDS011;22232;50.914;13.858;2023-05-19T05:36:39;6.07;;;3.65;;
36189;SDS011;22232;50.914;13.858;2023-05-19T05:39:08;10.77;;;4.30;;
36189;SDS011;22232;50.914;13.858;2023-05-19T05:41:37;9.63;;;4.20;;
36189;SDS011;22232;50.914;13.858;2023-05-19T05:44:09;8.25;;;4.15;;
36189;SDS011;22232;50.914;13.858;2023-05-19T05:46:39;7.20;;;3.88;;
36189;SDS011;22232;50.914;13.858;2023-05-19T05:49:08;5.72;;;3.47;;
36189;SDS011;22232;50.914;13.858;2023-05-19T05:51:38;10.02;;;4.18;;
36189;SDS011;22232;50.914;13.858;2023-05-19T05:54:11;6.20;;;3.88;;
36189;SDS011;22232;50.914;13.858;2023-05-19T05:56:44;9.25;;;3.40;;
36189;SDS011;22232;50.914;13.858;2023-05-19T05:59:13;6.07;;;3.30;;
36189;SDS011;22232;50.914;13.858;2023-05-19T06:01:42;6.57;;;3.63;;
36189;SDS011;22232;50.914;13.858;2023-05-19T06:04:11;5.60;;;3.65;;
36189;SDS011;22232;50.914;13.858;2023-05-19T06:06:38;5.78;;;3.55;;
36189;SDS011;22232;50.914;13.858;2023-05-19T06:09:07;7.30;;;3.67;;
36189;SDS011;22232;50.914;13.858;2023-05-19T06:11:34;7.25;;;3.60;;
36189;SDS011;22232;50.914;13.858;2023-05-19T06:14:03;7.53;;;3.78;;
36189;SDS011;22232;50.914;13.858;2023-05-19T06:16:51;7.63;;;3.83;;
36189;SDS011;22232;50.914;13.858;2023-05-19T06:19:20;7.43;;;3.58;;
36189;SDS011;22232;50.914;13.858;2023-05-19T06:21:47;6.85;;;3.95;;
36189;SDS011;22232;50.914;13.858;2023-05-19T06:24:15;9.30;;;3.97;;
36189;SDS011;22232;50.914;13.858;2023-05-19T06:26:43;10.00;;;4.30;;
36189;SDS011;22232;50.914;13.858;2023-05-19T06:29:10;8.98;;;4.68;;
36189;SDS011;22232;50.914;13.858;2023-05-19T06:31:38;5.70;;;3.75;;
36189;SDS011;22232;50.914;13.858;2023-05-19T06:34:09;7.10;;;4.15;;
36189;SDS011;22232;50.914;13.858;2023-05-19T06:36:38;7.75;;;4.32;;
36189;SDS011;22232;50.914;13.858;2023-05-19T06:39:08;8.25;;;4.53;;
36189;SDS011;22232;50.914;13.858;2023-05-19T06:41:36;8.57;;;4.43;;
36189;SDS011;22232;50.914;13.858;2023-05-19T06:44:06;6.63;;;4.55;;
36189;SDS011;22232;50.914;13.858;2023-05-19T06:46:35;8.80;;;4.55;;
36189;SDS011;22232;50.914;13.858;2023-05-19T06:49:03;7.43;;;4.57;;
36189;SDS011;22232;50.914;13.858;2023-05-19T06:51:36;7.38;;;4.50;;
36189;SDS011;22232;50.914;13.858;2023-05-19T06:54:03;6.85;;;4.10;;
36189;SDS011;22232;50.914;13.858;2023-05-19T06:56:31;8.02;;;4.43;;
36189;SDS011;22232;50.914;13.858;2023-05-19T06:58:58;7.88;;;4.25;;
36189;SDS011;22232;50.914;13.858;2023-05-19T07:01:32;7.18;;;4.35;;
36189;SDS011;22232;50.914;13.858;2023-05-19T07:04:01;8.07;;;4.05;;
36189;SDS011;22232;50.914;13.858;2023-05-19T07:06:29;10.00;;;4.55;;
36189;SDS011;22232;50.914;13.858;2023-05-19T07:08:57;9.75;;;4.35;;
36189;SDS011;22232;50.914;13.858;2023-05-19T07:11:25;7.30;;;4.05;;
36189;SDS011;22232;50.914;13.858;2023-05-19T07:13:53;8.18;;;4.45;;
36189;SDS011;22232;50.914;13.858;2023-05-19T07:16:26;7.63;;;4.15;;
36189;SDS011;22232;50.914;13.858;2023-05-19T07:18:54;9.32;;;4.60;;
36189;SDS011;22232;50.914;13.858;2023-05-19T07:21:21;10.52;;;4.20;;
36189;SDS011;22232;50.914;13.858;2023-05-19T07:23:49;7.32;;;4.55;;
36189;SDS011;22232;50.914;13.858;2023-05-19T07:26:17;8.90;;;4.53;;
36189;SDS011;22232;50.914;13.858;2023-05-19T07:28:45;8.98;;;4.72;;
36189;SDS011;22232;50.914;13.858;2023-05-19T07:31:12;8.30;;;4.57;;
36189;SDS011;22232;50.914;13.858;2023-05-19T07:33:40;8.82;;;4.40;;
36189;SDS011;22232;50.914;13.858;2023-05-19T07:36:07;10.20;;;4.30;;
36189;SDS011;22232;50.914;13.858;2023-05-19T07:38:35;9.30;;;5.20;;
36189;SDS011;22232;50.914;13.858;2023-05-19T07:41:04;7.75;;;4.20;;
36189;SDS011;22232;50.914;13.858;2023-05-19T07:43:31;8.55;;;4.18;;
36189;SDS011;22232;50.914;13.858;2023-05-19T07:45:59;6.55;;;4.30;;
36189;SDS011;22232;50.914;13.858;2023-05-19T07:48:27;10.43;;;4.43;;
36189;SDS011;22232;50.914;13.858;2023-05-19T07:50:55;7.57;;;4.25;;
36189;SDS011;22232;50.914;13.858;2023-05-19T07:53:23;8.57;;;4.28;;
36189;SDS011;22232;50.914;13.858;2023-05-19T07:55:50;6.32;;;4.05;;
36189;SDS011;22232;50.914;13.858;2023-05-19T07:58:18;8.18;;;4.15;;
36189;SDS011;22232;50.914;13.858;2023-05-19T08:00:46;6.65;;;4.25;;
36189;SDS011;22232;50.914;13.858;2023-05-19T08:03:14;6.57;;;4.07;;
36189;SDS011;22232;50.914;13.858;2023-05-19T08:05:44;10.20;;;3.85;;
36189;SDS011;22232;50.914;13.858;2023-05-19T08:11:45;5.40;;;3.70;;
36189;SDS011;22232;50.914;13.858;2023-05-19T08:14:16;9.73;;;3.40;;
36189;SDS011;22232;50.914;13.858;2023-05-19T08:16:43;28.05;;;4.97;;
36189;SDS011;22232;50.914;13.858;2023-05-19T08:19:12;7.45;;;4.20;;
36189;SDS011;22232;50.914;13.858;2023-05-19T08:21:39;8.40;;;3.92;;
36189;SDS011;22232;50.914;13.858;2023-05-19T08:24:08;8.00;;;3.80;;
36189;SDS011;22232;50.914;13.858;2023-05-19T08:26:36;45.50;;;5.70;;
36189;SDS011;22232;50.914;13.858;2023-05-19T08:29:04;7.80;;;4.10;;
36189;SDS011;22232;50.914;13.858;2023-05-19T08:31:31;7.70;;;4.10;;
36189;SDS011;22232;50.914;13.858;2023-05-19T08:33:59;8.98;;;4.22;;
36189;SDS011;22232;50.914;13.858;2023-05-19T08:36:26;8.73;;;3.70;;
36189;SDS011;22232;50.914;13.858;2023-05-19T08:38:55;7.63;;;3.28;;
36189;SDS011;22232;50.914;13.858;2023-05-19T08:41:22;7.13;;;3.35;;
36189;SDS011;22232;50.914;13.858;2023-05-19T08:43:50;5.93;;;2.72;;
36189;SDS011;22232;50.914;13.858;2023-05-19T08:46:18;4.95;;;2.78;;
36189;SDS011;22232;50.914;13.858;2023-05-19T08:48:48;3.00;;;2.40;;
36189;SDS011;22232;50.914;13.858;2023-05-19T08:51:30;5.43;;;2.80;;
36189;SDS011;22232;50.914;13.858;2023-05-19T08:54:13;4.03;;;2.20;;
36189;SDS011;22232;50.914;13.858;2023-05-19T08:56:42;6.40;;;2.15;;
36189;SDS011;22232;50.914;13.858;2023-05-19T08:59:14;3.53;;;2.25;;
36189;SDS011;22232;50.914;13.858;2023-05-19T09:01:43;3.17;;;2.38;;
36189;SDS011;22232;50.914;13.858;2023-05-19T09:04:12;3.95;;;2.10;;
36189;SDS011;22232;50.914;13.858;2023-05-19T09:06:42;4.13;;;2.22;;
36189;SDS011;22232;50.914;13.858;2023-05-19T09:09:10;4.10;;;2.28;;
36189;SDS011;22232;50.914;13.858;2023-05-19T09:11:38;6.25;;;2.42;;
36189;SDS011;22232;50.914;13.858;2023-05-19T09:14:06;5.82;;;2.10;;
36189;SDS011;22232;50.914;13.858;2023-05-19T09:16:33;4.47;;;2.22;;
36189;SDS011;22232;50.914;13.858;2023-05-19T09:19:01;5.53;;;2.40;;
36189;SDS011;22232;50.914;13.858;2023-05-19T09:21:29;4.00;;;2.20;;
36189;SDS011;22232;50.914;13.858;2023-05-19T09:24:03;2.45;;;2.08;;
36189;SDS011;22232;50.914;13.858;2023-05-19T09:26:39;3.47;;;2.45;;
36189;SDS011;22232;50.914;13.858;2023-05-19T09:29:25;4.35;;;2.63;;
36189;SDS011;22232;50.914;13.858;2023-05-19T09:31:54;3.50;;;2.25;;
36189;SDS011;22232;50.914;13.858;2023-05-19T09:34:27;4.68;;;2.20;;
36189;SDS011;22232;50.914;13.858;2023-05-19T09:36:54;3.33;;;2.45;;
36189;SDS011;22232;50.914;13.858;2023-05-19T09:39:24;4.82;;;2.63;;
36189;SDS011;22232;50.914;13.858;2023-05-19T09:41:53;3.00;;;1.92;;
36189;SDS011;22232;50.914;13.858;2023-05-19T09:44:21;4.53;;;2.40;;
36189;SDS011;22232;50.914;13.858;2023-05-19T09:46:50;4.63;;;2.10;;
36189;SDS011;22232;50.914;13.858;2023-05-19T09:49:19;3.38;;;2.20;;
36189;SDS011;22232;50.914;13.858;2023-05-19T09:51:54;4.82;;;2.40;;
36189;SDS011;22232;50.914;13.858;2023-05-19T09:54:28;3.78;;;2.40;;
36189;SDS011;22232;50.914;13.858;2023-05-19T09:56:59;3.78;;;2.35;;
36189;SDS011;22232;50.914;13.858;2023-05-19T10:02:00;6.10;;;2.50;;
36189;SDS011;22232;50.914;13.858;2023-05-19T10:04:29;4.78;;;2.22;;
36189;SDS011;22232;50.914;13.858;2023-05-19T10:06:57;6.75;;;2.40;;
36189;SDS011;22232;50.914;13.858;2023-05-19T10:09:27;5.53;;;2.45;;
36189;SDS011;22232;50.914;13.858;2023-05-19T10:11:56;5.30;;;2.45;;
36189;SDS011;22232;50.914;13.858;2023-05-19T10:14:25;4.63;;;2.55;;
36189;SDS011;22232;50.914;13.858;2023-05-19T10:16:55;3.40;;;2.47;;
36189;SDS011;22232;50.914;13.858;2023-05-19T10:19:26;20.85;;;4.22;;
36189;SDS011;22232;50.914;13.858;2023-05-19T10:21:55;4.93;;;2.75;;
36189;SDS011;22232;50.914;13.858;2023-05-19T10:24:23;3.45;;;2.53;;
36189;SDS011;22232;50.914;13.858;2023-05-19T10:26:52;7.10;;;2.85;;
36189;SDS011;22232;50.914;13.858;2023-05-19T10:29:26;4.68;;;2.92;;
36189;SDS011;22232;50.914;13.858;2023-05-19T10:31:58;5.53;;;2.97;;
36189;SDS011;22232;50.914;13.858;2023-05-19T10:37:26;6.05;;;3.08;;
36189;SDS011;22232;50.914;13.858;2023-05-19T10:39:59;3.55;;;2.67;;
36189;SDS011;22232;50.914;13.858;2023-05-19T10:45:44;6.60;;;2.72;;
36189;SDS011;22232;50.914;13.858;2023-05-19T10:48:15;4.85;;;3.03;;
36189;SDS011;22232;50.914;13.858;2023-05-19T10:50:43;26.58;;;4.93;;
36189;SDS011;22232;50.914;13.858;2023-05-19T10:53:13;8.63;;;3.03;;
36189;SDS011;22232;50.914;13.858;2023-05-19T10:55:45;6.85;;;3.00;;
36189;SDS011;22232;50.914;13.858;2023-05-19T10:58:15;5.32;;;2.90;;
36189;SDS011;22232;50.914;13.858;2023-05-19T11:01:07;4.05;;;2.90;;
36189;SDS011;22232;50.914;13.858;2023-05-19T11:03:44;6.00;;;3.35;;
36189;SDS011;22232;50.914;13.858;2023-05-19T11:06:26;5.15;;;2.90;;
36189;SDS011;22232;50.914;13.858;2023-05-19T11:11:43;36.85;;;5.47;;
36189;SDS011;22232;50.914;13.858;2023-05-19T11:14:13;6.60;;;2.80;;
36189;SDS011;22232;50.914;13.858;2023-05-19T11:16:45;12.30;;;3.78;;
36189;SDS011;22232;50.914;13.858;2023-05-19T11:19:27;7.93;;;3.20;;
36189;SDS011;22232;50.914;13.858;2023-05-19T11:22:07;4.93;;;3.00;;
36189;SDS011;22232;50.914;13.858;2023-05-19T11:24:42;6.63;;;2.63;;
36189;SDS011;22232;50.914;13.858;2023-05-19T11:27:28;7.15;;;2.70;;
36189;SDS011;22232;50.914;13.858;2023-05-19T11:30:00;6.65;;;2.95;;
36189;SDS011;22232;50.914;13.858;2023-05-19T11:32:37;5.65;;;2.70;;
36189;SDS011;22232;50.914;13.858;2023-05-19T11:35:08;7.47;;;3.22;;
36189;SDS011;22232;50.914;13.858;2023-05-19T11:37:36;6.13;;;3.35;;
36189;SDS011;22232;50.914;13.858;2023-05-19T11:40:04;5.88;;;2.72;;
36189;SDS011;22232;50.914;13.858;2023-05-19T11:42:33;5.88;;;2.92;;
36189;SDS011;22232;50.914;13.858;2023-05-19T11:45:03;4.90;;;3.00;;
36189;SDS011;22232;50.914;13.858;2023-05-19T11:47:31;7.13;;;3.03;;
36189;SDS011;22232;50.914;13.858;2023-05-19T11:50:21;5.95;;;2.83;;
36189;SDS011;22232;50.914;13.858;2023-05-19T11:52:50;4.97;;;2.67;;
36189;SDS011;22232;50.914;13.858;2023-05-19T11:55:18;4.13;;;2.70;;
36189;SDS011;22232;50.914;13.858;2023-05-19T11:57:59;4.85;;;2.88;;
36189;SDS011;22232;50.914;13.858;2023-05-19T12:00:35;6.55;;;3.10;;
36189;SDS011;22232;50.914;13.858;2023-05-19T12:03:06;3.38;;;2.65;;
36189;SDS011;22232;50.914;13.858;2023-05-19T12:05:36;8.65;;;3.50;;
36189;SDS011;22232;50.914;13.858;2023-05-19T12:08:09;7.28;;;2.80;;
36189;SDS011;22232;50.914;13.858;2023-05-19T12:10:38;5.82;;;3.38;;
36189;SDS011;22232;50.914;13.858;2023-05-19T12:13:06;6.50;;;3.45;;
36189;SDS011;22232;50.914;13.858;2023-05-19T12:15:36;12.57;;;3.03;;
36189;SDS011;22232;50.914;13.858;2023-05-19T12:18:04;14.60;;;4.43;;
36189;SDS011;22232;50.914;13.858;2023-05-19T12:20:32;17.85;;;3.67;;
36189;SDS011;22232;50.914;13.858;2023-05-19T12:23:02;41.67;;;5.97;;
36189;SDS011;22232;50.914;13.858;2023-05-19T12:25:30;18.30;;;4.15;;
36189;SDS011;22232;50.914;13.858;2023-05-19T12:27:59;52.92;;;6.03;;
36189;SDS011;22232;50.914;13.858;2023-05-19T12:30:30;11.93;;;3.47;;
36189;SDS011;22232;50.914;13.858;2023-05-19T12:33:00;13.13;;;3.70;;
36189;SDS011;22232;50.914;13.858;2023-05-19T12:35:29;11.20;;;4.15;;
36189;SDS011;22232;50.914;13.858;2023-05-19T12:38:03;15.55;;;4.68;;
36189;SDS011;22232;50.914;13.858;2023-05-19T12:40:34;9.45;;;4.40;;
36189;SDS011;22232;50.914;13.858;2023-05-19T12:43:04;18.38;;;5.05;;
36189;SDS011;22232;50.914;13.858;2023-05-19T12:45:33;8.07;;;4.15;;
36189;SDS011;22232;50.914;13.858;2023-05-19T12:48:12;9.82;;;4.60;;
36189;SDS011;22232;50.914;13.858;2023-05-19T12:50:43;28.25;;;5.55;;
36189;SDS011;22232;50.914;13.858;2023-05-19T12:53:14;11.52;;;4.40;;
36189;SDS011;22232;50.914;13.858;2023-05-19T12:55:43;7.60;;;3.92;;
36189;SDS011;22232;50.914;13.858;2023-05-19T12:58:11;10.18;;;4.80;;
36189;SDS011;22232;50.914;13.858;2023-05-19T13:00:43;7.60;;;4.50;;
36189;SDS011;22232;50.914;13.858;2023-05-19T13:03:17;24.80;;;5.80;;
36189;SDS011;22232;50.914;13.858;2023-05-19T13:05:48;9.93;;;4.43;;
36189;SDS011;22232;50.914;13.858;2023-05-19T13:08:20;8.15;;;4.60;;
36189;SDS011;22232;50.914;13.858;2023-05-19T13:10:50;7.30;;;4.60;;
36189;SDS011;22232;50.914;13.858;2023-05-19T13:13:17;10.43;;;4.68;;
36189;SDS011;22232;50.914;13.858;2023-05-19T13:15:45;13.75;;;5.10;;
36189;SDS011;22232;50.914;13.858;2023-05-19T13:18:15;13.73;;;4.78;;
36189;SDS011;22232;50.914;13.858;2023-05-19T13:20:43;12.20;;;4.45;;
36189;SDS011;22232;50.914;13.858;2023-05-19T13:23:12;12.32;;;4.28;;
36189;SDS011;22232;50.914;13.858;2023-05-19T13:25:40;9.75;;;4.30;;
36189;SDS011;22232;50.914;13.858;2023-05-19T13:28:08;9.27;;;4.93;;
36189;SDS011;22232;50.914;13.858;2023-05-19T13:30:37;13.88;;;4.68;;
36189;SDS011;22232;50.914;13.858;2023-05-19T13:33:06;13.40;;;5.07;;
36189;SDS011;22232;50.914;13.858;2023-05-19T13:35:34;7.60;;;4.63;;
36189;SDS011;22232;50.914;13.858;2023-05-19T13:38:05;9.20;;;4.75;;
36189;SDS011;22232;50.914;13.858;2023-05-19T13:40:37;8.48;;;4.75;;
36189;SDS011;22232;50.914;13.858;2023-05-19T13:43:06;9.98;;;4.95;;
36189;SDS011;22232;50.914;13.858;2023-05-19T13:45:34;9.05;;;4.80;;
36189;SDS011;22232;50.914;13.858;2023-05-19T13:48:02;9.05;;;4.70;;
36189;SDS011;22232;50.914;13.858;2023-05-19T13:50:30;8.25;;;4.82;;
36189;SDS011;22232;50.914;13.858;2023-05-19T13:52:58;15.75;;;4.93;;
36189;SDS011;22232;50.914;13.858;2023-05-19T13:55:26;8.10;;;4.88;;
36189;SDS011;22232;50.914;13.858;2023-05-19T13:57:53;8.38;;;5.43;;
36189;SDS011;22232;50.914;13.858;2023-05-19T14:00:21;10.35;;;5.20;;
36189;SDS011;22232;50.914;13.858;2023-05-19T14:02:49;6.95;;;4.53;;
36189;SDS011;22232;50.914;13.858;2023-05-19T14:05:16;8.32;;;5.32;;
36189;SDS011;22232;50.914;13.858;2023-05-19T14:07:44;10.63;;;4.88;;
36189;SDS011;22232;50.914;13.858;2023-05-19T14:10:12;11.27;;;5.70;;
36189;SDS011;22232;50.914;13.858;2023-05-19T14:12:39;12.10;;;5.35;;
36189;SDS011;22232;50.914;13.858;2023-05-19T14:15:27;10.82;;;5.20;;
36189;SDS011;22232;50.914;13.858;2023-05-19T14:17:55;9.02;;;5.07;;
36189;SDS011;22232;50.914;13.858;2023-05-19T14:20:22;7.28;;;4.63;;
36189;SDS011;22232;50.914;13.858;2023-05-19T14:22:50;11.63;;;4.82;;
36189;SDS011;22232;50.914;13.858;2023-05-19T14:25:18;10.40;;;4.72;;
36189;SDS011;22232;50.914;13.858;2023-05-19T14:27:45;11.25;;;5.25;;
36189;SDS011;22232;50.914;13.858;2023-05-19T14:30:13;11.98;;;5.63;;
36189;SDS011;22232;50.914;13.858;2023-05-19T14:32:40;8.77;;;5.20;;
36189;SDS011;22232;50.914;13.858;2023-05-19T14:35:08;12.98;;;4.80;;
36189;SDS011;22232;50.914;13.858;2023-05-19T14:37:35;11.40;;;4.95;;
36189;SDS011;22232;50.914;13.858;2023-05-19T14:40:03;9.40;;;5.07;;
36189;SDS011;22232;50.914;13.858;2023-05-19T14:42:31;12.60;;;4.88;;
36189;SDS011;22232;50.914;13.858;2023-05-19T14:44:59;8.95;;;4.80;;
36189;SDS011;22232;50.914;13.858;2023-05-19T14:47:27;8.70;;;4.40;;
36189;SDS011;22232;50.914;13.858;2023-05-19T14:49:54;10.40;;;4.88;;
36189;SDS011;22232;50.914;13.858;2023-05-19T14:52:22;8.75;;;4.95;;
36189;SDS011;22232;50.914;13.858;2023-05-19T14:54:49;9.50;;;5.30;;
36189;SDS011;22232;50.914;13.858;2023-05-19T14:57:17;8.23;;;5.00;;
36189;SDS011;22232;50.914;13.858;2023-05-19T14:59:44;9.32;;;4.78;;
36189;SDS011;22232;50.914;13.858;2023-05-19T15:02:12;11.23;;;4.88;;
36189;SDS011;22232;50.914;13.858;2023-05-19T15:04:40;17.58;;;5.30;;
36189;SDS011;22232;50.914;13.858;2023-05-19T15:07:07;6.80;;;4.90;;
36189;SDS011;22232;50.914;13.858;2023-05-19T15:09:37;7.63;;;4.72;;
36189;SDS011;22232;50.914;13.858;2023-05-19T15:12:04;9.30;;;5.30;;
36189;SDS011;22232;50.914;13.858;2023-05-19T15:14:32;6.47;;;4.57;;
36189;SDS011;22232;50.914;13.858;2023-05-19T15:16:59;7.75;;;4.70;;
36189;SDS011;22232;50.914;13.858;2023-05-19T15:19:27;8.18;;;4.78;;